Terminal Aerodrome Forecast
Issued by NWS

Home | Current Version | Previous Version | Text Only | Print | Product List | Glossary On
Versions: 1 2 3 4 5 6 7 8 9 10 11 12 13 14 15 16 17 18 19 20 21 22 23 24 25
340
FTUS46 KMTR 221811 AAA
TAFMRY
TAF AMD
KMRY 221811Z 2218/2318 29007KT P6SM SCT005
     FM222000 29007KT P6SM FEW010 SCT250
     FM222100 28010KT P6SM FEW250
     FM230400 21004KT P6SM SCT015 SCT250
     FM231000 VRB03KT P6SM BKN015
     FM231300 VRB03KT 2SM BR OVC007=

USA.gov is the U.S. government's official web portal to all federal, state and local government web resources and services.